createdAt,value
2023-01-31T00:11:36.292Z,13.90
2023-01-31T00:14:05.777Z,14.70
2023-01-31T00:16:34.810Z,14.80
2023-01-31T00:19:04.125Z,13.30
2023-01-31T00:21:33.079Z,13.90
2023-01-31T00:24:01.593Z,14.10
2023-01-31T00:26:32.184Z,13.70
2023-01-31T00:29:01.799Z,14.60
2023-01-31T00:31:31.257Z,14.10
2023-01-31T00:33:59.991Z,14.00
2023-01-31T00:36:30.434Z,11.10
2023-01-31T00:38:59.835Z,14.70
2023-01-31T00:41:29.743Z,14.60
2023-01-31T00:44:00.383Z,14.10
2023-01-31T00:46:29.086Z,14.60
2023-01-31T00:48:57.758Z,14.30
2023-01-31T00:51:26.921Z,14.30
2023-01-31T00:53:56.466Z,15.00
2023-01-31T00:56:24.958Z,15.40
2023-01-31T00:58:55.886Z,15.50
2023-01-31T01:01:29.092Z,14.60
2023-01-31T01:03:58.208Z,15.50
2023-01-31T01:06:29.436Z,14.90
2023-01-31T01:09:00.051Z,14.90
2023-01-31T01:11:31.126Z,15.30
2023-01-31T01:13:59.815Z,15.50
2023-01-31T01:16:36.642Z,14.70
2023-01-31T01:19:06.827Z,13.40
2023-01-31T01:21:41.513Z,14.00
2023-01-31T01:24:15.121Z,15.40
2023-01-31T01:26:44.325Z,15.00
2023-01-31T01:29:13.111Z,15.10
2023-01-31T01:31:42.206Z,14.50
2023-01-31T01:34:15.142Z,14.40
2023-01-31T01:36:45.605Z,14.30
2023-01-31T01:39:17.692Z,14.80
2023-01-31T01:41:47.032Z,15.30
2023-01-31T01:44:52.345Z,15.30
2023-01-31T01:47:52.885Z,13.90
2023-01-31T01:50:27.609Z,15.50
2023-01-31T01:53:00.508Z,15.10
2023-01-31T01:55:36.448Z,15.10
2023-01-31T01:58:11.486Z,15.20
2023-01-31T02:00:39.917Z,14.00
2023-01-31T02:03:08.561Z,14.20
2023-01-31T02:05:43.384Z,15.90
2023-01-31T02:08:13.150Z,16.10
2023-01-31T02:11:04.103Z,16.30
2023-01-31T02:13:32.901Z,14.20
2023-01-31T02:16:01.580Z,14.80
2023-01-31T02:18:30.276Z,16.60
2023-01-31T02:21:23.931Z,15.60
2023-01-31T02:24:06.043Z,15.30
2023-01-31T02:27:06.985Z,14.50
2023-01-31T02:29:45.400Z,15.40
2023-01-31T02:32:23.100Z,14.70
2023-01-31T02:35:08.416Z,15.30
2023-01-31T02:37:41.567Z,16.10
2023-01-31T02:40:34.519Z,14.00
2023-01-31T02:43:27.578Z,14.20
2023-01-31T02:46:07.483Z,15.60
2023-01-31T02:48:45.334Z,16.20
2023-01-31T02:51:25.746Z,15.00
2023-01-31T02:54:00.234Z,15.10
2023-01-31T02:56:33.285Z,15.40
2023-01-31T02:59:13.976Z,15.00
2023-01-31T03:01:46.821Z,16.40
2023-01-31T03:04:15.657Z,17.10
2023-01-31T03:06:54.936Z,15.40
2023-01-31T03:09:38.932Z,15.20
2023-01-31T03:12:36.809Z,14.70
2023-01-31T03:15:21.145Z,15.00
2023-01-31T03:18:04.610Z,15.80
2023-01-31T03:21:10.349Z,14.20
2023-01-31T03:23:38.931Z,15.80
2023-01-31T03:26:07.628Z,15.00
2023-01-31T03:28:37.326Z,16.10
2023-01-31T03:31:20.148Z,11.70
2023-01-31T03:33:51.163Z,14.70
2023-01-31T03:36:30.732Z,14.90
2023-01-31T03:39:19.902Z,14.60
2023-01-31T03:42:07.749Z,13.90
2023-01-31T03:44:52.307Z,15.30
2023-01-31T03:47:41.676Z,16.50
2023-01-31T03:50:30.946Z,15.60
2023-01-31T03:53:04.980Z,14.90
2023-01-31T03:55:50.232Z,14.90
2023-01-31T03:58:20.146Z,15.00
2023-01-31T04:00:49.171Z,15.40
2023-01-31T04:03:25.201Z,15.90
2023-01-31T04:05:54.296Z,14.90
2023-01-31T04:08:22.984Z,15.30
2023-01-31T04:10:59.148Z,14.50
2023-01-31T04:13:27.629Z,15.00
2023-01-31T04:15:55.984Z,15.20
2023-01-31T04:18:24.595Z,14.90
2023-01-31T04:20:53.079Z,15.20
2023-01-31T04:23:21.562Z,15.20
2023-01-31T04:25:49.942Z,16.00
2023-01-31T04:28:18.323Z,15.90
2023-01-31T04:30:46.704Z,15.90
2023-01-31T04:33:15.197Z,16.20
2023-01-31T04:35:43.874Z,16.90
2023-01-31T04:38:12.256Z,16.40
2023-01-31T04:40:42.992Z,15.60
2023-01-31T04:43:12.509Z,14.90
2023-01-31T04:45:40.782Z,16.30
2023-01-31T04:48:10.016Z,16.10
2023-01-31T04:50:39.389Z,16.80
2023-01-31T04:53:09.489Z,15.70
2023-01-31T04:55:41.165Z,14.60
2023-01-31T04:58:10.015Z,15.60
2023-01-31T05:00:38.353Z,15.60
2023-01-31T05:03:07.357Z,16.30
2023-01-31T05:05:36.564Z,16.80
2023-01-31T05:10:34.827Z,16.70
2023-01-31T05:13:03.203Z,16.30
2023-01-31T05:15:33.242Z,16.60
2023-01-31T05:18:04.724Z,16.60
2023-01-31T05:20:42.787Z,18.00
2023-01-31T05:23:11.382Z,17.40
2023-01-31T05:25:40.266Z,16.80
2023-01-31T05:28:08.750Z,16.70
2023-01-31T05:30:37.871Z,16.40
2023-01-31T05:33:07.972Z,16.00
2023-01-31T05:35:37.888Z,17.00
2023-01-31T05:38:06.293Z,17.50
2023-01-31T05:40:35.862Z,17.50
2023-01-31T05:43:04.373Z,17.40
2023-01-31T05:45:33.585Z,16.40
2023-01-31T05:48:02.434Z,16.50
2023-01-31T05:50:31.161Z,18.20
2023-01-31T05:53:11.413Z,17.60
2023-01-31T05:55:39.879Z,18.50
2023-01-31T05:58:08.370Z,18.20
2023-01-31T06:00:37.191Z,16.90
2023-01-31T06:03:05.677Z,17.90
2023-01-31T06:05:34.469Z,17.20
2023-01-31T06:08:03.871Z,18.00
2023-01-31T06:10:32.227Z,18.30
2023-01-31T06:13:00.707Z,17.90
2023-01-31T06:15:29.295Z,16.60
2023-01-31T06:17:58.004Z,17.40
2023-01-31T06:20:26.975Z,16.90
2023-01-31T06:22:55.466Z,18.30
2023-01-31T06:25:23.840Z,17.90
2023-01-31T06:27:56.116Z,17.90
2023-01-31T06:30:24.517Z,17.30
2023-01-31T06:32:53.407Z,16.30
2023-01-31T06:35:22.594Z,16.60
2023-01-31T06:37:51.375Z,19.20
2023-01-31T06:40:19.860Z,18.30
2023-01-31T06:42:48.347Z,20.10
2023-01-31T06:45:16.929Z,18.30
2023-01-31T06:47:45.876Z,18.50
2023-01-31T06:50:14.202Z,17.40
2023-01-31T06:52:42.891Z,19.20
2023-01-31T06:55:11.990Z,19.70
2023-01-31T06:57:49.584Z,17.90
2023-01-31T07:00:18.877Z,19.10
2023-01-31T07:02:47.577Z,18.20
2023-01-31T07:05:16.160Z,18.70
2023-01-31T07:07:45.155Z,18.60
2023-01-31T07:10:13.757Z,18.70
2023-01-31T07:12:42.228Z,19.30
2023-01-31T07:15:11.341Z,17.70
2023-01-31T07:17:40.010Z,18.70
2023-01-31T07:20:09.375Z,18.50
2023-01-31T07:22:38.208Z,20.20
2023-01-31T07:25:07.513Z,20.90
2023-01-31T07:27:36.194Z,15.60
2023-01-31T07:30:05.505Z,18.10
2023-01-31T07:32:34.704Z,18.70
2023-01-31T07:35:03.179Z,19.70
2023-01-31T07:37:32.238Z,36.50
2023-01-31T07:40:00.964Z,15.20
2023-01-31T07:42:29.881Z,19.40
2023-01-31T07:44:59.822Z,20.20
2023-01-31T07:47:31.332Z,18.40
2023-01-31T07:49:59.813Z,19.00
2023-01-31T07:52:28.292Z,19.50
2023-01-31T07:54:56.776Z,19.10
2023-01-31T07:57:25.156Z,18.80
2023-01-31T07:59:53.535Z,19.30
2023-01-31T08:02:40.245Z,18.40
2023-01-31T08:05:09.805Z,18.20
2023-01-31T08:07:38.644Z,18.80
2023-01-31T08:10:08.138Z,19.20
2023-01-31T08:12:38.580Z,19.40
2023-01-31T08:15:08.115Z,18.60
2023-01-31T08:17:36.467Z,18.10
2023-01-31T08:20:05.786Z,19.00
2023-01-31T08:22:34.455Z,20.10
2023-01-31T08:25:02.845Z,20.20
2023-01-31T08:27:31.621Z,20.20
2023-01-31T08:30:00.208Z,18.80
2023-01-31T08:32:29.243Z,18.10
2023-01-31T08:34:57.995Z,19.50
2023-01-31T08:37:26.785Z,20.60
2023-01-31T08:39:55.163Z,19.60
2023-01-31T08:42:23.852Z,18.70
2023-01-31T08:44:52.754Z,17.90
2023-01-31T08:47:25.260Z,19.40
2023-01-31T08:49:53.807Z,19.10
2023-01-31T08:52:22.698Z,19.50
2023-01-31T08:54:51.287Z,19.50
2023-01-31T08:57:21.198Z,19.30
2023-01-31T09:02:18.168Z,17.80
2023-01-31T09:04:46.546Z,20.20
2023-01-31T09:07:14.927Z,20.10
2023-01-31T09:09:45.812Z,19.60
2023-01-31T09:12:14.254Z,20.10
2023-01-31T09:14:43.561Z,19.60
2023-01-31T09:17:12.143Z,19.40
2023-01-31T09:19:41.032Z,13.60
2023-01-31T09:22:09.514Z,19.30
2023-01-31T09:24:38.181Z,20.50
2023-01-31T09:27:07.012Z,19.30
2023-01-31T09:29:35.681Z,18.40
2023-01-31T09:32:04.482Z,19.40
2023-01-31T09:34:33.776Z,20.00
2023-01-31T09:37:02.273Z,20.00
2023-01-31T09:39:30.801Z,20.50
2023-01-31T09:42:03.426Z,19.80
2023-01-31T09:44:33.219Z,17.70
2023-01-31T09:47:14.985Z,19.00
2023-01-31T09:49:53.145Z,19.50
2023-01-31T09:52:21.527Z,18.70
2023-01-31T09:54:49.907Z,17.80
2023-01-31T09:57:40.820Z,19.20
2023-01-31T10:00:20.465Z,18.40
2023-01-31T10:03:03.490Z,19.10
2023-01-31T10:05:47.744Z,19.90
2023-01-31T10:08:31.778Z,18.50
2023-01-31T10:11:02.023Z,18.80
2023-01-31T10:13:46.783Z,17.10
2023-01-31T10:16:28.003Z,17.50
2023-01-31T10:19:22.256Z,19.30
2023-01-31T10:21:56.336Z,17.10
2023-01-31T10:24:40.939Z,17.20
2023-01-31T10:27:16.950Z,17.30
2023-01-31T10:29:47.940Z,17.50
2023-01-31T10:32:52.168Z,18.30
2023-01-31T10:35:43.788Z,18.20
2023-01-31T10:38:42.171Z,18.10
2023-01-31T10:41:20.489Z,17.60
2023-01-31T10:43:53.299Z,18.00
2023-01-31T10:46:21.830Z,17.80
2023-01-31T10:48:50.496Z,18.00
2023-01-31T10:51:53.247Z,17.80
2023-01-31T10:54:27.774Z,16.80
2023-01-31T10:56:57.908Z,17.60
2023-01-31T11:01:55.099Z,18.00
2023-01-31T11:04:26.325Z,18.90
2023-01-31T11:06:54.794Z,18.50
2023-01-31T11:09:24.302Z,18.10
2023-01-31T11:11:57.594Z,17.90
2023-01-31T11:14:26.094Z,17.60
2023-01-31T11:17:18.243Z,19.90
2023-01-31T11:19:48.962Z,18.80
2023-01-31T11:22:25.970Z,19.40
2023-01-31T11:24:54.327Z,17.30
2023-01-31T11:27:37.978Z,17.00
2023-01-31T11:30:08.130Z,18.00
2023-01-31T11:32:37.303Z,18.90
2023-01-31T11:35:14.699Z,17.60
2023-01-31T11:37:54.301Z,17.80
2023-01-31T11:40:33.178Z,18.10
2023-01-31T16:09:41.274Z,13.40
2023-01-31T16:12:09.651Z,14.00
2023-01-31T16:14:38.341Z,13.40
2023-01-31T16:17:06.718Z,12.80
2023-01-31T16:19:38.377Z,12.90
2023-01-31T16:22:25.086Z,13.90
2023-01-31T16:24:58.990Z,14.00
2023-01-31T16:27:29.350Z,13.90
2023-01-31T16:32:29.972Z,12.50
2023-01-31T16:35:01.741Z,13.30
2023-01-31T16:37:36.874Z,14.10
2023-01-31T16:40:28.095Z,13.60
2023-01-31T16:43:21.867Z,12.10
2023-01-31T16:45:58.568Z,12.10
2023-01-31T16:48:32.651Z,12.40
2023-01-31T16:51:22.082Z,13.30
2023-01-31T16:54:23.469Z,13.70
2023-01-31T16:57:22.593Z,13.00
2023-01-31T16:59:54.473Z,12.70
2023-01-31T17:02:31.200Z,13.40
2023-01-31T17:05:01.961Z,14.00
2023-01-31T17:07:33.019Z,13.50
2023-01-31T17:10:03.432Z,13.00
2023-01-31T17:12:37.038Z,13.60
2023-01-31T17:15:18.465Z,13.80
2023-01-31T17:17:51.513Z,13.90
2023-01-31T17:20:20.967Z,13.50
2023-01-31T17:23:00.914Z,12.20
2023-01-31T17:25:32.929Z,12.00
2023-01-31T17:28:01.666Z,13.80
2023-01-31T17:30:31.512Z,13.00
2023-01-31T17:33:00.114Z,14.10
2023-01-31T17:35:36.187Z,13.90
2023-01-31T17:38:05.113Z,13.00
2023-01-31T17:40:33.627Z,13.50
2023-01-31T17:43:04.199Z,14.00
2023-01-31T17:45:33.511Z,14.80
2023-01-31T17:48:02.296Z,14.00
2023-01-31T17:50:31.387Z,13.80
2023-01-31T17:52:59.768Z,13.80
2023-01-31T17:55:28.123Z,13.60
2023-01-31T17:57:56.837Z,14.10
2023-01-31T18:00:25.230Z,14.00
2023-01-31T18:02:55.672Z,12.40
2023-01-31T18:05:38.324Z,12.60
2023-01-31T18:08:09.000Z,12.60
2023-01-31T18:10:37.687Z,13.40
2023-01-31T18:13:06.783Z,11.50
2023-01-31T18:15:36.510Z,10.40
2023-01-31T18:18:08.966Z,11.70
2023-01-31T18:20:47.535Z,10.80
2023-01-31T18:23:15.868Z,11.50
2023-01-31T18:25:44.557Z,10.50
2023-01-31T18:28:13.452Z,10.70
2023-01-31T18:30:41.844Z,9.90
2023-01-31T18:33:10.308Z,11.00
2023-01-31T18:35:39.104Z,11.10
2023-01-31T18:38:07.684Z,10.20
2023-01-31T18:40:36.044Z,9.90
2023-01-31T18:43:04.445Z,10.00
2023-01-31T18:45:33.036Z,9.80
2023-01-31T18:48:01.431Z,10.30
2023-01-31T18:50:31.068Z,9.80
2023-01-31T18:52:59.504Z,9.90
2023-01-31T18:55:28.092Z,10.00
2023-01-31T18:57:57.086Z,10.90
2023-01-31T19:00:25.765Z,11.80
2023-01-31T19:02:54.979Z,10.40
2023-01-31T19:05:23.890Z,9.90
2023-01-31T19:07:52.582Z,8.20
2023-01-31T19:10:21.339Z,10.00
2023-01-31T19:12:50.134Z,11.40
2023-01-31T19:15:18.759Z,10.80
2023-01-31T19:17:47.504Z,9.90
2023-01-31T19:20:16.087Z,10.00
2023-01-31T19:22:44.472Z,10.10
2023-01-31T19:25:13.057Z,10.50
2023-01-31T19:27:41.742Z,10.20
2023-01-31T19:30:11.291Z,9.60
2023-01-31T19:32:39.731Z,8.70
2023-01-31T22:30:36.563Z,8.10
2023-01-31T22:33:05.045Z,8.70
2023-01-31T22:35:34.653Z,8.20
2023-01-31T22:38:04.982Z,7.80
2023-01-31T22:43:02.046Z,6.90
2023-01-31T22:45:30.633Z,7.50
2023-01-31T22:47:59.732Z,6.90
2023-01-31T22:50:28.122Z,6.40
2023-01-31T22:52:56.596Z,6.60
2023-01-31T22:55:24.974Z,5.90
2023-01-31T22:57:53.561Z,6.50
2023-01-31T23:00:23.784Z,6.50
2023-01-31T23:02:52.577Z,5.20
2023-01-31T23:05:21.157Z,7.20
2023-01-31T23:07:49.956Z,6.00
2023-01-31T23:10:18.523Z,7.50
2023-01-31T23:12:47.389Z,6.60
2023-01-31T23:15:15.917Z,6.70
2023-01-31T23:18:04.692Z,6.50
2023-01-31T23:20:33.362Z,5.80
2023-01-31T23:23:01.836Z,6.50
2023-01-31T23:25:30.217Z,6.10
2023-01-31T23:28:02.703Z,6.90
2023-01-31T23:30:31.486Z,6.10
2023-01-31T23:33:01.032Z,5.90
2023-01-31T23:35:32.132Z,6.00
2023-01-31T23:38:00.719Z,5.70
2023-01-31T23:40:29.306Z,5.60
2023-01-31T23:42:57.786Z,5.30
2023-01-31T23:45:26.686Z,5.20
2023-01-31T23:47:55.060Z,6.00
2023-01-31T23:50:25.388Z,5.70
2023-01-31T23:55:23.585Z,6.40
2023-01-31T23:57:52.069Z,5.40
